Time;durP1;ratioP1;P1;durP2;ratioP2;P2;SDS_P1;SDS_P2;PMS_P1;PMS_P2;Temp;Humidity;BMP_temperature;BMP_pressure;BME280_temperature;BME280_humidity;BME280_pressure;Samples;Min_cycle;Max_cycle;Signal;HPM_P1;HPM_P2
2022/04/05 00:00:58;;;;;;;0.55;0.55;;;17.10;56.90;;;;;;4993018;28;20505;-14
2022/04/05 00:03:23;;;;;;;0.40;0.40;;;17.10;56.80;;;;;;4983949;28;20050;-13
2022/04/05 00:05:49;;;;;;;0.30;0.30;;;17.10;56.80;;;;;;4987066;28;20126;-14
2022/04/05 00:08:17;;;;;;;0.50;0.50;;;17.10;56.80;;;;;;4989019;28;20415;-14
2022/04/05 00:10:43;;;;;;;0.50;0.50;;;17.10;56.80;;;;;;4991364;28;20094;-13
2022/04/05 00:13:09;;;;;;;0.30;0.30;;;17.10;56.70;;;;;;4998318;28;20530;-14
2022/04/05 00:15:34;;;;;;;0.30;0.30;;;17.10;56.80;;;;;;4996847;28;20053;-14
2022/04/05 00:18:00;;;;;;;0.50;0.50;;;17.00;56.80;;;;;;4998080;28;20054;-13
2022/04/05 00:20:29;;;;;;;0.40;0.40;;;17.00;56.90;;;;;;4998086;28;20565;-13
2022/04/05 00:22:54;;;;;;;0.40;0.38;;;17.10;56.80;;;;;;4998108;28;20203;-14
2022/04/05 00:25:20;;;;;;;0.30;0.30;;;17.10;56.80;;;;;;4996224;28;20066;-14
2022/04/05 00:27:47;;;;;;;0.30;0.30;;;17.00;56.70;;;;;;4991759;28;20050;-14
2022/04/05 00:30:13;;;;;;;0.40;0.40;;;17.10;56.80;;;;;;4987774;28;20089;-14
2022/04/05 00:32:39;;;;;;;0.22;0.22;;;17.10;56.70;;;;;;4986876;28;20046;-14
2022/04/05 00:35:05;;;;;;;0.30;0.30;;;17.00;56.70;;;;;;4987067;28;20483;-13
2022/04/05 00:37:30;;;;;;;0.30;0.30;;;17.10;56.80;;;;;;4987565;28;20043;-15
2022/04/05 00:39:56;;;;;;;0.20;0.20;;;17.00;56.60;;;;;;4988973;28;20050;-16
2022/04/05 00:42:22;;;;;;;0.30;0.30;;;17.10;56.70;;;;;;4995239;28;20041;-14
2022/04/05 00:44:48;;;;;;;0.22;0.22;;;17.10;56.60;;;;;;4985625;28;20069;-15
2022/04/05 00:47:18;;;;;;;0.30;0.30;;;17.10;56.60;;;;;;4998520;28;20093;-13
2022/04/05 00:49:44;;;;;;;0.40;0.40;;;17.10;56.70;;;;;;4998553;28;20502;-13
2022/04/05 00:52:10;;;;;;;0.25;0.25;;;17.00;56.60;;;;;;4997327;28;20519;-12
2022/04/05 00:54:37;;;;;;;0.30;0.30;;;17.00;56.70;;;;;;4996087;28;20050;-13
2022/04/05 00:57:02;;;;;;;0.40;0.30;;;17.00;56.60;;;;;;4997421;28;20046;-12
2022/04/05 00:59:29;;;;;;;0.40;0.40;;;17.00;56.70;;;;;;4997184;28;20046;-13
2022/04/05 01:01:54;;;;;;;0.40;0.40;;;17.00;56.80;;;;;;4981919;28;20043;-13
2022/04/05 01:04:21;;;;;;;0.30;0.30;;;17.00;56.80;;;;;;4970440;28;20050;-13
2022/04/05 01:06:46;;;;;;;0.50;0.40;;;17.00;56.70;;;;;;4992937;28;20046;-13
2022/04/05 01:09:12;;;;;;;0.47;0.47;;;17.00;56.70;;;;;;4987210;28;20403;-13
2022/04/05 01:11:38;;;;;;;0.30;0.30;;;16.90;56.80;;;;;;4997661;28;20042;-14
2022/04/05 01:14:04;;;;;;;0.30;0.30;;;16.90;56.70;;;;;;4989140;28;20051;-13
2022/04/05 01:16:30;;;;;;;0.40;0.40;;;16.90;56.80;;;;;;4983687;28;20039;-12
2022/04/05 01:18:55;;;;;;;0.30;0.30;;;17.00;56.80;;;;;;4986093;28;20070;-12
2022/04/05 01:21:21;;;;;;;0.30;0.30;;;16.90;56.70;;;;;;4977268;28;20050;-12
2022/04/05 01:24:12;;;;;;;0.30;0.30;;;16.90;56.70;;;;;;4978314;28;20506;-13
2022/04/05 01:26:55;;;;;;;0.30;0.30;;;17.00;56.70;;;;;;4977881;28;20058;-15
2022/04/05 01:29:21;;;;;;;0.28;0.28;;;17.00;56.70;;;;;;4978049;28;20051;-12
2022/04/05 01:31:49;;;;;;;0.30;0.30;;;16.90;56.80;;;;;;4978028;28;20086;-13
2022/04/05 01:34:20;;;;;;;0.30;0.30;;;16.90;56.70;;;;;;4978036;28;20043;-13
2022/04/05 01:36:50;;;;;;;0.30;0.30;;;16.90;56.80;;;;;;4978531;28;20058;-13
2022/04/05 01:39:16;;;;;;;0.40;0.40;;;16.90;56.70;;;;;;4977748;28;20047;-12
2022/04/05 01:41:41;;;;;;;0.30;0.30;;;16.90;56.70;;;;;;4978548;28;20043;-12
2022/04/05 01:44:08;;;;;;;0.30;0.30;;;16.90;56.80;;;;;;4978008;28;20548;-13
2022/04/05 01:46:33;;;;;;;0.38;0.38;;;16.90;56.70;;;;;;4978179;28;20050;-12
2022/04/05 01:48:59;;;;;;;0.82;0.82;;;16.90;56.70;;;;;;4995882;28;20057;-12
2022/04/05 01:51:24;;;;;;;0.22;0.22;;;16.90;56.70;;;;;;4996928;28;20042;-13
2022/04/05 01:53:50;;;;;;;0.68;0.30;;;16.90;56.80;;;;;;4978050;28;20038;-13
2022/04/05 01:56:16;;;;;;;0.55;0.40;;;16.90;56.90;;;;;;4977409;28;20062;-13
2022/04/05 01:58:41;;;;;;;0.30;0.30;;;16.90;56.90;;;;;;4996105;28;20089;-13
2022/04/05 02:01:07;;;;;;;0.30;0.30;;;16.90;56.90;;;;;;4996107;28;20050;-13
2022/04/05 02:03:33;;;;;;;0.50;0.35;;;16.90;56.90;;;;;;4996888;28;20074;-13
2022/04/05 02:05:58;;;;;;;0.30;0.30;;;16.90;56.70;;;;;;4991037;28;20038;-13
2022/04/05 02:08:24;;;;;;;0.20;0.20;;;16.90;56.70;;;;;;4977567;28;20073;-12
2022/04/05 02:10:50;;;;;;;0.30;0.30;;;16.90;56.70;;;;;;4980323;28;20042;-12
2022/04/05 02:13:16;;;;;;;0.30;0.30;;;16.90;56.70;;;;;;4996334;28;20045;-12
2022/04/05 02:15:41;;;;;;;0.50;0.38;;;16.90;56.80;;;;;;4997058;28;20038;-14
2022/04/05 02:18:07;;;;;;;0.28;0.28;;;16.90;56.80;;;;;;4996207;28;20113;-12
2022/04/05 02:20:33;;;;;;;0.30;0.30;;;16.90;56.80;;;;;;4989074;28;20101;-13
2022/04/05 02:22:59;;;;;;;0.30;0.30;;;16.90;56.80;;;;;;4976656;28;20476;-14
2022/04/05 02:25:26;;;;;;;0.30;0.30;;;16.80;56.70;;;;;;4977470;28;20097;-13
2022/04/05 02:27:52;;;;;;;0.20;0.10;;;16.90;56.80;;;;;;4977671;28;20082;-13
2022/04/05 02:30:17;;;;;;;0.20;0.20;;;16.80;56.80;;;;;;4976770;28;20062;-12
2022/04/05 02:32:43;;;;;;;0.20;0.20;;;16.80;56.80;;;;;;4977145;28;20105;-13
2022/04/05 02:35:10;;;;;;;0.38;0.20;;;16.80;56.80;;;;;;4976528;28;20041;-13
2022/04/05 02:37:37;;;;;;;0.30;0.30;;;16.80;56.80;;;;;;4977194;28;20062;-12
2022/04/05 02:40:03;;;;;;;0.28;0.28;;;16.80;56.90;;;;;;4976570;28;20034;-13
2022/04/05 02:42:29;;;;;;;0.30;0.30;;;16.80;56.90;;;;;;4975927;28;20043;-12
2022/04/05 02:44:55;;;;;;;0.30;0.28;;;16.80;57.00;;;;;;4976816;28;20173;-14
2022/04/05 02:47:20;;;;;;;0.30;0.30;;;16.80;56.80;;;;;;4982460;28;20047;-13
2022/04/05 02:49:46;;;;;;;0.30;0.30;;;16.80;56.80;;;;;;4996447;28;20042;-13
2022/04/05 02:52:14;;;;;;;0.77;0.30;;;16.80;56.80;;;;;;4985373;28;20074;-13
2022/04/05 02:54:39;;;;;;;0.50;0.28;;;16.90;57.50;;;;;;4994906;28;20525;-14
2022/04/05 02:57:05;;;;;;;0.30;0.30;;;16.80;57.00;;;;;;4995768;28;20458;-13
2022/04/05 02:59:30;;;;;;;0.50;0.38;;;16.90;57.00;;;;;;4996323;28;20043;-13
2022/04/05 03:01:56;;;;;;;0.20;0.20;;;16.80;57.00;;;;;;4976807;28;20460;-15
2022/04/05 03:04:21;;;;;;;0.40;0.30;;;16.80;57.10;;;;;;4982515;28;20046;-12
2022/04/05 03:06:47;;;;;;;0.30;0.30;;;16.80;57.10;;;;;;4983938;28;20518;-13
2022/04/05 03:09:13;;;;;;;0.60;0.30;;;16.80;57.20;;;;;;4995695;28;20050;-12
2022/04/05 03:11:38;;;;;;;0.30;0.30;;;16.80;57.10;;;;;;4977309;28;20084;-12
2022/04/05 03:14:04;;;;;;;0.30;0.30;;;16.70;57.20;;;;;;4976165;28;20097;-13
2022/04/05 03:16:29;;;;;;;0.52;0.52;;;16.70;57.20;;;;;;4992718;28;20472;-13
2022/04/05 03:18:55;;;;;;;0.68;0.47;;;16.70;57.20;;;;;;4995519;28;20038;-14
2022/04/05 03:21:20;;;;;;;1.20;0.30;;;16.70;57.20;;;;;;4994935;28;20050;-12
2022/04/05 03:23:46;;;;;;;0.32;0.32;;;16.70;57.30;;;;;;4985511;28;20602;-12
2022/04/05 03:26:12;;;;;;;0.32;0.32;;;16.70;57.30;;;;;;4976001;28;20133;-13
2022/04/05 03:28:37;;;;;;;0.60;0.20;;;16.70;57.30;;;;;;4976579;28;20039;-13
2022/04/05 03:31:03;;;;;;;0.50;0.40;;;16.70;57.20;;;;;;4975780;28;20105;-14
2022/04/05 03:33:30;;;;;;;0.32;0.32;;;16.70;57.20;;;;;;4976326;28;20047;-12
2022/04/05 03:35:56;;;;;;;0.30;0.30;;;16.70;57.30;;;;;;4976578;28;20130;-12
2022/04/05 03:38:22;;;;;;;0.40;0.38;;;16.70;57.30;;;;;;4975607;28;20062;-13
2022/04/05 03:40:47;;;;;;;0.43;0.40;;;16.70;57.40;;;;;;4976458;28;20147;-12
2022/04/05 03:43:13;;;;;;;0.50;0.50;;;16.70;57.50;;;;;;4976010;28;20053;-13
2022/04/05 03:45:39;;;;;;;0.30;0.30;;;16.80;57.50;;;;;;4976824;28;20047;-13
2022/04/05 03:48:05;;;;;;;0.30;0.30;;;16.80;57.50;;;;;;4987034;28;20061;-13
2022/04/05 03:50:31;;;;;;;0.22;0.22;;;16.80;57.70;;;;;;4987181;28;20049;-13
2022/04/05 03:52:59;;;;;;;0.52;0.52;;;16.80;57.70;;;;;;4976342;28;20043;-13
2022/04/05 03:55:25;;;;;;;0.40;0.40;;;16.80;57.80;;;;;;4975595;28;20078;-12
2022/04/05 03:57:51;;;;;;;0.40;0.40;;;16.80;57.90;;;;;;4988593;28;20587;-15
2022/04/05 04:00:17;;;;;;;0.40;0.40;;;16.70;57.90;;;;;;4976483;28;20055;-13
2022/04/05 04:02:42;;;;;;;0.50;0.50;;;16.80;57.90;;;;;;4976098;28;20042;-13
2022/04/05 04:05:08;;;;;;;0.47;0.47;;;16.80;58.00;;;;;;4979154;28;20145;-12
2022/04/05 04:07:40;;;;;;;0.30;0.30;;;16.70;58.10;;;;;;4992425;28;20045;-12
2022/04/05 04:10:06;;;;;;;0.40;0.40;;;16.70;58.10;;;;;;4994891;28;20050;-14
2022/04/05 04:12:32;;;;;;;0.30;0.30;;;16.70;58.00;;;;;;4995130;28;20092;-13
2022/04/05 04:14:58;;;;;;;0.40;0.40;;;16.70;58.10;;;;;;4976174;28;20046;-13
2022/04/05 04:17:25;;;;;;;0.30;0.30;;;16.70;58.00;;;;;;4988037;28;20144;-13
2022/04/05 04:19:50;;;;;;;0.73;0.50;;;16.70;58.00;;;;;;4995473;28;20043;-12
2022/04/05 04:22:16;;;;;;;0.40;0.40;;;16.70;58.10;;;;;;4994716;28;20070;-13
2022/04/05 04:24:42;;;;;;;0.38;0.38;;;16.70;58.10;;;;;;4995562;28;20458;-12
2022/04/05 04:27:07;;;;;;;0.47;0.30;;;16.70;58.10;;;;;;4994791;28;20121;-13
2022/04/05 04:29:33;;;;;;;0.43;0.43;;;16.70;58.10;;;;;;4988350;28;20571;-12
2022/04/05 04:31:58;;;;;;;0.25;0.25;;;16.70;58.10;;;;;;4974574;28;20066;-13
2022/04/05 04:34:24;;;;;;;0.52;0.45;;;16.70;58.10;;;;;;4978906;28;20106;-12
2022/04/05 04:36:49;;;;;;;0.47;0.40;;;16.70;58.10;;;;;;4979857;28;20416;-12
2022/04/05 04:39:17;;;;;;;0.50;0.50;;;16.70;58.00;;;;;;4978902;28;20163;-12
2022/04/05 04:41:43;;;;;;;0.40;0.32;;;16.70;58.80;;;;;;4979447;28;20046;-14
2022/04/05 04:44:09;;;;;;;0.20;0.20;;;16.70;58.10;;;;;;4979225;28;20065;-12
2022/04/05 04:46:35;;;;;;;0.45;0.35;;;16.70;58.00;;;;;;4979276;28;20047;-12
2022/04/05 04:49:00;;;;;;;0.55;0.35;;;16.70;58.10;;;;;;4998301;28;20042;-12
2022/04/05 04:51:26;;;;;;;0.40;0.40;;;16.70;58.00;;;;;;4993026;28;20512;-13
2022/04/05 04:53:52;;;;;;;0.22;0.22;;;16.70;58.00;;;;;;4979201;28;20138;-12
2022/04/05 04:56:17;;;;;;;0.50;0.47;;;16.70;57.90;;;;;;4978705;28;20047;-12
2022/04/05 04:58:44;;;;;;;0.43;0.32;;;16.80;57.90;;;;;;4979165;28;20408;-13
2022/04/05 05:01:09;;;;;;;0.30;0.30;;;16.70;57.90;;;;;;4990106;28;20054;-12
2022/04/05 05:03:35;;;;;;;0.30;0.22;;;16.80;57.90;;;;;;4998302;28;20046;-12
2022/04/05 05:06:01;;;;;;;0.40;0.40;;;16.70;57.80;;;;;;4997876;28;20532;-12
2022/04/05 05:08:27;;;;;;;0.40;0.40;;;16.80;57.90;;;;;;4997614;28;20050;-12
2022/04/05 05:10:52;;;;;;;0.30;0.30;;;16.70;57.70;;;;;;4641873;28;9999887;-12
2022/04/05 05:13:18;;;;;;;0.30;0.30;;;16.70;57.90;;;;;;4990954;28;20507;-12
2022/04/05 05:15:44;;;;;;;0.30;0.30;;;16.70;57.80;;;;;;4997069;28;20184;-12
2022/04/05 05:18:09;;;;;;;0.30;0.30;;;16.70;57.80;;;;;;4985435;28;20046;-13
2022/04/05 05:20:35;;;;;;;0.45;0.40;;;16.70;57.90;;;;;;4994195;28;20043;-13
2022/04/05 05:23:01;;;;;;;0.30;0.30;;;16.70;57.90;;;;;;4993421;28;20058;-13
2022/04/05 05:25:27;;;;;;;0.50;0.30;;;16.70;58.10;;;;;;4996803;28;20093;-12
2022/04/05 05:27:52;;;;;;;0.30;0.30;;;16.80;58.00;;;;;;4982521;28;20046;-12
2022/04/05 05:30:18;;;;;;;0.40;0.20;;;16.70;57.90;;;;;;4992505;28;20051;-12
2022/04/05 05:32:49;;;;;;;0.30;0.30;;;16.70;58.00;;;;;;4995552;28;20050;-12
2022/04/05 05:35:15;;;;;;;0.30;0.30;;;16.70;58.00;;;;;;4988814;28;20224;-12
2022/04/05 05:37:41;;;;;;;0.45;0.45;;;16.70;58.00;;;;;;4994185;28;20069;-12
2022/04/05 05:40:07;;;;;;;0.40;0.38;;;16.70;58.00;;;;;;4984944;28;20539;-14
2022/04/05 05:42:33;;;;;;;0.50;0.50;;;16.80;58.00;;;;;;4993348;28;20527;-13
2022/04/05 05:44:58;;;;;;;0.30;0.30;;;16.80;58.00;;;;;;4997047;28;20466;-12
2022/04/05 05:47:24;;;;;;;0.43;0.28;;;16.80;58.00;;;;;;4993530;28;20550;-13
2022/04/05 05:49:49;;;;;;;0.30;0.30;;;16.90;58.10;;;;;;4994662;28;20454;-12
2022/04/05 05:52:15;;;;;;;0.85;0.40;;;16.80;58.50;;;;;;5002073;28;20061;-13
2022/04/05 05:54:41;;;;;;;2.05;0.40;;;16.80;58.50;;;;;;5004576;28;20351;-12
2022/04/05 05:57:07;;;;;;;0.30;0.30;;;16.80;58.90;;;;;;5004238;28;20037;-12
2022/04/05 05:59:33;;;;;;;0.77;0.45;;;16.80;58.60;;;;;;4994446;28;20049;-12
2022/04/05 06:01:58;;;;;;;1.40;0.55;;;16.80;58.60;;;;;;4992883;28;20050;-13
2022/04/05 06:04:24;;;;;;;0.40;0.40;;;16.90;58.60;;;;;;4991410;28;20101;-13
2022/04/05 06:06:50;;;;;;;0.60;0.55;;;16.90;58.30;;;;;;5003699;28;20053;-13
2022/04/05 06:09:16;;;;;;;0.30;0.30;;;16.80;58.40;;;;;;4995862;28;20060;-13
2022/04/05 06:11:41;;;;;;;0.30;0.30;;;16.80;58.50;;;;;;4993188;28;20082;-14
2022/04/05 06:14:07;;;;;;;1.35;0.35;;;16.80;58.30;;;;;;4990163;28;20415;-13
2022/04/05 06:16:32;;;;;;;0.35;0.35;;;16.90;58.30;;;;;;4987279;28;20054;-13
2022/04/05 06:18:58;;;;;;;1.20;0.40;;;17.00;58.10;;;;;;4988248;28;20535;-12
2022/04/05 06:21:23;;;;;;;0.60;0.50;;;16.90;58.20;;;;;;4992184;28;20054;-12
2022/04/05 06:23:49;;;;;;;0.40;0.40;;;16.90;58.30;;;;;;4994038;28;20512;-14
2022/04/05 06:26:15;;;;;;;0.20;0.20;;;16.90;58.30;;;;;;4963786;28;20066;-14
2022/04/05 06:28:40;;;;;;;0.40;0.30;;;16.90;58.30;;;;;;4998822;28;20110;-13
2022/04/05 06:31:06;;;;;;;0.30;0.30;;;16.90;58.30;;;;;;4988641;28;20046;-12
2022/04/05 06:33:32;;;;;;;0.65;0.25;;;16.90;58.30;;;;;;4987621;28;20101;-14
2022/04/05 06:35:58;;;;;;;0.30;0.30;;;16.90;58.30;;;;;;4992609;28;20504;-13
2022/04/05 06:38:25;;;;;;;0.40;0.30;;;16.90;58.40;;;;;;4987222;28;20501;-13
2022/04/05 06:40:50;;;;;;;2.72;0.30;;;16.90;58.40;;;;;;4987295;28;20046;-12
2022/04/05 06:43:16;;;;;;;1.83;0.50;;;16.90;58.40;;;;;;4988705;28;20054;-16
2022/04/05 06:45:42;;;;;;;2.00;0.30;;;16.80;58.70;;;;;;4980616;28;20114;-15
2022/04/05 06:48:09;;;;;;;0.57;0.52;;;16.80;58.60;;;;;;4978642;28;20667;-16
2022/04/05 06:50:38;;;;;;;1.38;0.30;;;16.90;58.70;;;;;;4977488;28;20058;-16
2022/04/05 06:53:04;;;;;;;0.73;0.43;;;16.80;59.30;;;;;;4979801;28;20046;-15
2022/04/05 06:55:29;;;;;;;0.30;0.30;;;16.90;58.70;;;;;;4977627;28;20042;-14
2022/04/05 06:57:55;;;;;;;0.40;0.30;;;16.90;58.60;;;;;;4979786;28;20117;-15
2022/04/05 07:00:23;;;;;;;0.32;0.32;;;16.90;58.50;;;;;;4978620;28;20530;-15
2022/04/05 07:02:49;;;;;;;0.38;0.30;;;16.80;58.50;;;;;;4980705;28;20121;-15
2022/04/05 07:05:15;;;;;;;0.43;0.22;;;16.80;58.50;;;;;;4980116;28;20050;-15
2022/04/05 07:07:40;;;;;;;0.25;0.20;;;16.80;58.50;;;;;;4979858;28;20771;-14
2022/04/05 07:10:07;;;;;;;0.85;0.38;;;16.90;58.60;;;;;;4978972;28;20587;-14
2022/04/05 07:12:33;;;;;;;0.40;0.22;;;16.80;58.50;;;;;;4979572;28;20058;-14
2022/04/05 07:14:59;;;;;;;0.38;0.20;;;16.90;58.50;;;;;;4980511;28;20054;-15
2022/04/05 07:17:25;;;;;;;0.63;0.30;;;16.90;58.40;;;;;;4979727;28;20110;-14
2022/04/05 07:19:52;;;;;;;0.40;0.40;;;16.80;58.40;;;;;;4978752;28;20054;-14
2022/04/05 07:22:17;;;;;;;0.60;0.57;;;16.90;58.40;;;;;;4979543;28;20089;-14
2022/04/05 07:24:43;;;;;;;0.30;0.30;;;16.80;58.20;;;;;;4980284;28;20058;-14
2022/04/05 07:27:08;;;;;;;0.40;0.38;;;16.90;58.30;;;;;;4980025;28;20050;-14
2022/04/05 07:29:34;;;;;;;0.30;0.30;;;16.90;58.10;;;;;;4978560;28;20140;-14
2022/04/05 07:32:00;;;;;;;0.50;0.50;;;16.80;58.30;;;;;;4980281;28;20046;-15
2022/04/05 07:34:26;;;;;;;0.25;0.20;;;16.80;58.10;;;;;;4979161;28;20435;-15
2022/04/05 07:36:52;;;;;;;1.70;0.30;;;16.80;58.20;;;;;;4978959;28;20050;-16
2022/04/05 07:39:19;;;;;;;0.30;0.30;;;16.80;58.20;;;;;;4978694;28;20046;-14
2022/04/05 07:41:45;;;;;;;0.30;0.30;;;16.80;58.20;;;;;;4979806;28;20058;-15
2022/04/05 07:44:10;;;;;;;1.05;0.47;;;16.90;58.00;;;;;;4978870;28;20568;-14
2022/04/05 07:46:36;;;;;;;0.77;0.38;;;16.90;58.00;;;;;;4979309;28;20058;-14
2022/04/05 07:49:02;;;;;;;0.30;0.30;;;16.80;58.00;;;;;;4980536;28;20402;-14
2022/04/05 07:51:27;;;;;;;0.40;0.40;;;16.80;58.20;;;;;;4978188;28;20081;-15
2022/04/05 07:53:53;;;;;;;0.30;0.30;;;16.80;58.10;;;;;;4980025;28;20116;-14
2022/04/05 07:56:19;;;;;;;0.52;0.40;;;16.80;58.00;;;;;;4979296;28;20061;-15
2022/04/05 07:58:45;;;;;;;0.30;0.30;;;16.80;58.00;;;;;;4980178;28;20074;-15
2022/04/05 08:01:10;;;;;;;0.60;0.40;;;16.80;57.90;;;;;;4978652;28;20494;-15
2022/04/05 08:03:37;;;;;;;0.65;0.40;;;16.80;58.10;;;;;;4979749;28;20148;-14
2022/04/05 08:06:03;;;;;;;0.70;0.40;;;16.80;57.90;;;;;;4980021;28;20054;-15
2022/04/05 08:08:29;;;;;;;0.30;0.30;;;16.90;57.90;;;;;;4981485;28;20050;-15
2022/04/05 08:10:55;;;;;;;0.28;0.28;;;16.80;57.90;;;;;;4982356;28;20326;-15
2022/04/05 08:13:20;;;;;;;0.65;0.30;;;16.80;57.90;;;;;;4983539;28;20054;-15
2022/04/05 08:15:46;;;;;;;0.32;0.32;;;16.80;57.90;;;;;;4983883;28;20116;-14
2022/04/05 08:18:12;;;;;;;0.30;0.30;;;16.80;57.90;;;;;;4983081;28;20069;-14
2022/04/05 08:20:41;;;;;;;0.20;0.20;;;16.80;57.90;;;;;;4981317;28;20058;-15
2022/04/05 08:23:09;;;;;;;0.40;0.25;;;16.80;57.90;;;;;;4983795;28;20370;-15
2022/04/05 08:25:35;;;;;;;0.20;0.20;;;16.80;57.90;;;;;;4982913;28;20054;-15
2022/04/05 08:28:01;;;;;;;0.38;0.38;;;16.80;57.90;;;;;;4983590;28;20060;-15
2022/04/05 08:30:27;;;;;;;0.50;0.30;;;16.80;58.00;;;;;;4978958;28;20072;-14
2022/04/05 08:32:52;;;;;;;0.40;0.40;;;16.80;57.90;;;;;;4982986;28;20234;-16
2022/04/05 08:35:19;;;;;;;0.73;0.20;;;16.80;57.90;;;;;;4983010;28;20089;-14
2022/04/05 08:37:45;;;;;;;0.40;0.40;;;16.80;57.80;;;;;;4983676;28;20054;-14
2022/04/05 08:40:12;;;;;;;0.60;0.50;;;16.80;57.90;;;;;;4982174;28;20054;-14
2022/04/05 08:42:43;;;;;;;0.22;0.22;;;16.80;57.80;;;;;;4983075;28;20046;-15
2022/04/05 08:45:10;;;;;;;0.50;0.50;;;16.90;57.70;;;;;;4983452;28;20129;-15
2022/04/05 08:47:44;;;;;;;1.42;0.20;;;16.80;57.70;;;;;;4982351;28;20468;-15
2022/04/05 08:50:09;;;;;;;1.42;0.50;;;16.90;57.80;;;;;;4979869;28;20042;-14
2022/04/05 08:52:35;;;;;;;0.50;0.30;;;16.90;57.70;;;;;;4982651;28;20137;-16
2022/04/05 08:55:01;;;;;;;1.83;0.40;;;16.80;57.80;;;;;;4982913;28;20137;-15
2022/04/05 08:57:27;;;;;;;0.20;0.20;;;16.80;58.30;;;;;;4982386;28;20053;-14
2022/04/05 08:59:52;;;;;;;0.20;0.20;;;16.90;57.60;;;;;;4981075;28;20054;-14
2022/04/05 09:02:25;;;;;;;0.20;0.20;;;16.90;57.50;;;;;;4982844;28;20085;-14
2022/04/05 09:04:50;;;;;;;0.40;0.40;;;16.90;57.60;;;;;;4982364;28;20471;-15
2022/04/05 09:07:23;;;;;;;0.40;0.30;;;16.90;57.50;;;;;;4982839;28;21044;-14
2022/04/05 09:10:12;;;;;;;0.38;0.30;;;16.80;57.70;;;;;;4980530;28;20054;-14
2022/04/05 09:12:47;;;;;;;0.45;0.45;;;16.90;57.60;;;;;;4982296;28;20598;-15
2022/04/05 09:15:16;;;;;;;0.22;0.22;;;16.80;57.50;;;;;;4982572;28;20058;-15
2022/04/05 09:17:43;;;;;;;0.30;0.20;;;16.80;57.70;;;;;;4981228;28;20065;-14
2022/04/05 09:20:10;;;;;;;0.20;0.20;;;16.80;57.60;;;;;;4980502;28;20091;-14
2022/04/05 09:22:36;;;;;;;0.20;0.20;;;16.80;57.50;;;;;;4981692;28;20058;-15
2022/04/05 09:25:09;;;;;;;0.60;0.40;;;16.90;57.60;;;;;;4982114;28;20046;-14
2022/04/05 09:27:51;;;;;;;0.57;0.40;;;16.80;57.50;;;;;;4981985;28;20046;-15
2022/04/05 09:30:27;;;;;;;0.57;0.40;;;16.80;57.50;;;;;;4980761;28;20054;-14
2022/04/05 09:32:56;;;;;;;0.20;0.20;;;16.90;57.60;;;;;;4982076;28;20050;-14
2022/04/05 09:35:43;;;;;;;0.40;0.35;;;16.90;57.50;;;;;;4981273;28;20145;-14
2022/04/05 09:38:18;;;;;;;0.38;0.38;;;16.90;57.50;;;;;;4982446;28;20058;-14
2022/04/05 09:40:44;;;;;;;0.20;0.20;;;16.90;57.70;;;;;;4979627;28;20106;-14
2022/04/05 09:43:15;;;;;;;0.25;0.25;;;16.90;57.40;;;;;;4982183;28;20054;-15
2022/04/05 09:46:01;;;;;;;0.30;0.30;;;16.90;57.40;;;;;;4981724;28;20062;-15
2022/04/05 09:48:35;;;;;;;0.93;0.30;;;16.90;57.50;;;;;;4980871;28;20054;-14
2022/04/05 09:51:09;;;;;;;0.38;0.38;;;16.90;57.60;;;;;;4981167;28;20046;-14
2022/04/05 09:53:55;;;;;;;0.30;0.20;;;16.90;57.40;;;;;;4980938;28;20080;-14
2022/04/05 09:56:22;;;;;;;0.40;0.40;;;16.90;57.60;;;;;;4981628;28;20395;-19
2022/04/05 09:59:06;;;;;;;0.35;0.35;;;16.90;57.40;;;;;;4981118;28;20054;-14
2022/04/05 10:01:34;;;;;;;0.28;0.28;;;16.90;57.40;;;;;;4977656;28;20054;-15
2022/04/05 10:04:08;;;;;;;0.20;0.20;;;16.90;57.50;;;;;;4982119;28;20042;-14
2022/04/05 10:06:38;;;;;;;0.35;0.35;;;16.90;57.40;;;;;;4981204;28;20050;-14
2022/04/05 10:09:04;;;;;;;0.30;0.30;;;16.90;57.40;;;;;;4981902;28;20074;-15
2022/04/05 10:11:33;;;;;;;0.57;0.47;;;16.90;57.40;;;;;;4979579;28;20076;-14
2022/04/05 10:13:59;;;;;;;0.30;0.25;;;17.00;57.30;;;;;;4982348;28;20078;-16
2022/04/05 10:16:26;;;;;;;0.20;0.20;;;17.00;57.50;;;;;;4981421;28;20089;-14
2022/04/05 10:18:59;;;;;;;0.30;0.30;;;17.00;57.60;;;;;;4981940;28;20050;-15
2022/04/05 10:21:29;;;;;;;0.40;0.22;;;17.00;57.40;;;;;;4980581;28;20058;-14
2022/04/05 10:23:55;;;;;;;0.28;0.20;;;16.90;57.30;;;;;;4981399;28;20058;-14
2022/04/05 10:26:24;;;;;;;0.28;0.20;;;16.90;57.40;;;;;;4981556;28;20063;-14
2022/04/05 10:28:50;;;;;;;0.20;0.20;;;16.90;57.50;;;;;;4981303;28;20138;-14
2022/04/05 10:31:26;;;;;;;0.20;0.20;;;17.00;57.50;;;;;;4978005;28;20385;-15
2022/04/05 10:34:00;;;;;;;0.20;0.20;;;17.00;57.30;;;;;;4979583;28;20069;-14
2022/04/05 10:36:26;;;;;;;0.20;0.20;;;17.00;57.30;;;;;;4979955;28;20058;-15
2022/04/05 10:39:14;;;;;;;0.30;0.30;;;16.90;57.30;;;;;;4982071;28;20054;-15
2022/04/05 10:41:40;;;;;;;0.10;0.10;;;16.90;57.40;;;;;;4979568;28;20088;-14
2022/04/05 10:44:27;;;;;;;0.20;0.20;;;17.00;57.30;;;;;;4982085;28;20046;-15
2022/04/05 10:46:55;;;;;;;0.30;0.30;;;17.00;57.30;;;;;;4981245;28;20061;-15
2022/04/05 10:49:42;;;;;;;0.22;0.20;;;17.00;57.30;;;;;;4979094;28;20084;-15
2022/04/05 10:52:17;;;;;;;0.30;0.25;;;17.00;57.30;;;;;;4981224;28;20082;-14
2022/04/05 10:54:49;;;;;;;0.40;0.40;;;17.00;57.20;;;;;;4981089;28;20152;-15
2022/04/05 10:57:27;;;;;;;0.68;0.20;;;17.00;57.10;;;;;;4981645;28;20068;-14
2022/04/05 10:59:58;;;;;;;0.20;0.20;;;17.10;57.30;;;;;;4979567;28;20054;-14
2022/04/05 11:02:28;;;;;;;0.30;0.30;;;17.10;57.10;;;;;;4981689;28;20093;-15
2022/04/05 11:05:01;;;;;;;0.20;0.20;;;17.00;57.10;;;;;;4981107;28;20060;-14
2022/04/05 11:07:27;;;;;;;0.20;0.20;;;17.00;57.40;;;;;;4980874;28;20057;-16
2022/04/05 11:09:58;;;;;;;0.40;0.30;;;17.00;57.40;;;;;;4978069;28;20871;-14
2022/04/05 11:12:28;;;;;;;0.20;0.20;;;17.00;57.20;;;;;;4980484;28;20046;-14
2022/04/05 11:15:03;;;;;;;0.20;0.10;;;17.00;57.40;;;;;;4980571;28;20054;-15
2022/04/05 11:17:29;;;;;;;0.45;0.30;;;17.10;57.20;;;;;;4632998;28;10000336;-15
2022/04/05 11:19:57;;;;;;;0.20;0.20;;;17.30;57.00;;;;;;4975537;28;20062;-15
2022/04/05 11:22:23;;;;;;;0.40;0.40;;;17.20;57.40;;;;;;4978613;28;20066;-13
2022/04/05 11:24:55;;;;;;;0.30;0.30;;;17.10;57.70;;;;;;4993426;28;20047;-14
2022/04/05 11:27:38;;;;;;;0.22;0.22;;;17.20;57.00;;;;;;5007673;28;20085;-14
2022/04/05 11:30:26;;;;;;;0.20;0.20;;;17.10;57.30;;;;;;4969858;28;20048;-12
2022/04/05 11:33:16;;;;;;;0.68;0.40;;;17.00;57.80;;;;;;5011156;28;20576;-12
2022/04/05 11:35:43;;;;;;;0.40;0.35;;;17.10;58.00;;;;;;4989896;28;20034;-12
2022/04/05 11:38:26;;;;;;;1.95;0.30;;;17.10;58.30;;;;;;5007378;28;20411;-12
2022/04/05 11:40:54;;;;;;;0.25;0.20;;;17.10;58.30;;;;;;5011132;28;20042;-13
2022/04/05 11:43:22;;;;;;;0.45;0.25;;;17.20;58.50;;;;;;5001542;28;20085;-13
2022/04/05 11:45:48;;;;;;;0.38;0.38;;;17.20;58.40;;;;;;4995455;28;20507;-13
2022/04/05 11:48:17;;;;;;;0.30;0.28;;;17.30;58.40;;;;;;5001334;28;20446;-12
2022/04/05 11:50:42;;;;;;;0.40;0.30;;;17.20;58.20;;;;;;4982118;28;20093;-12
2022/04/05 11:53:28;;;;;;;0.65;0.38;;;17.20;58.30;;;;;;4996092;28;20042;-12
2022/04/05 11:56:18;;;;;;;0.45;0.30;;;17.30;58.50;;;;;;4997999;28;20038;-12
2022/04/05 11:58:46;;;;;;;0.35;0.30;;;17.20;58.40;;;;;;4999095;28;20034;-12
2022/04/05 12:01:12;;;;;;;0.50;0.40;;;17.10;58.70;;;;;;4998624;28;20070;-13
2022/04/05 12:03:48;;;;;;;1.50;0.30;;;17.10;58.70;;;;;;4997531;28;20066;-12
2022/04/05 12:06:17;;;;;;;0.55;0.40;;;17.00;58.80;;;;;;4994877;28;20069;-12
2022/04/05 12:08:42;;;;;;;1.02;0.40;;;17.00;58.80;;;;;;4979414;28;20459;-13
2022/04/05 12:11:09;;;;;;;0.57;0.30;;;17.00;58.90;;;;;;4995391;28;20050;-12
2022/04/05 12:13:35;;;;;;;0.40;0.40;;;17.00;59.00;;;;;;4998794;28;20057;-12
2022/04/05 12:16:02;;;;;;;0.73;0.50;;;17.00;59.60;;;;;;4999357;28;20046;-13
2022/04/05 12:18:28;;;;;;;0.85;0.30;;;17.00;59.10;;;;;;4998880;28;20058;-12
2022/04/05 12:20:57;;;;;;;0.35;0.35;;;17.00;59.10;;;;;;4991802;28;20058;-12
2022/04/05 12:23:24;;;;;;;0.52;0.40;;;17.00;59.10;;;;;;4998712;28;20408;-12
2022/04/05 12:26:09;;;;;;;1.52;0.45;;;17.00;59.10;;;;;;4998379;28;20058;-13
2022/04/05 12:28:36;;;;;;;0.77;0.40;;;17.00;59.20;;;;;;4997848;28;20042;-12
2022/04/05 12:31:21;;;;;;;2.38;0.40;;;17.00;59.20;;;;;;4991765;28;20066;-13
2022/04/05 12:33:59;;;;;;;1.85;0.52;;;16.90;59.10;;;;;;4998430;28;20415;-12
2022/04/05 12:36:31;;;;;;;0.35;0.28;;;16.90;59.30;;;;;;4999050;28;20043;-12
2022/04/05 12:38:56;;;;;;;0.77;0.70;;;16.90;59.20;;;;;;4997803;28;20054;-12
2022/04/05 12:41:22;;;;;;;2.50;0.77;;;16.90;59.20;;;;;;4999094;28;20522;-13
2022/04/05 12:44:04;;;;;;;0.43;0.30;;;16.90;59.30;;;;;;4998246;28;20120;-14
2022/04/05 12:46:41;;;;;;;1.33;0.50;;;16.90;59.30;;;;;;4998615;28;20504;-13
2022/04/05 12:49:20;;;;;;;2.05;0.50;;;16.90;59.30;;;;;;5003317;28;20081;-13